Aktualizace13-Aug-2018 8:32pm 
 
:.
METEOSTANICE CHUDCICE (CZ), Milan Kolar

Vývoj počasí za 24 hodin



Temp/Humidity last 24 hours


Čas Teplota Rychlost větru Směr větru Vlhkost Tlak D隝
15:51 21.4°C (70.5°F) 0.0km/h (0.0 mph) S 60% 982.8hPa (29.02 inHg) 0.0mm (0.00 in.)
14:51 21.5°C (70.7 °F) 0.0km/h (0.0 mph) SSE 2% 982.8hPa (29.02 inHg) 0.0mm (0.00 in.)
13:51 20.6°C (69.1 °F) 0.0km/h (0.0 mph) SSE 5% 982.2hPa (29.00 inHg) 0.0mm (0.00 in.)
12:51 18.8°C (65.8 °F) 0.0km/h (0.0 mph) SSW 12% 982.8hPa (29.02 inHg) 0.0mm (0.00 in.)
11:51 15.9°C (60.6 °F) 0.0km/h (0.0 mph) NNW 23% 983.0hPa (29.03 inHg) 0.0mm (0.00 in.)
10:51 11.6°C (52.9 °F) 3.7km/h (2.3 mph) N 31% 984.2hPa (29.06 inHg) 0.0mm (0.00 in.)
09:51 8.1°C (46.6 °F) 0.0km/h (0.0 mph) SSE 33% 984.2hPa (29.06 inHg) 0.0mm (0.00 in.)
08:51 4.9°C (40.8 °F) 0.0km/h (0.0 mph) SSW 33% 984.3hPa (29.07 inHg) 0.0mm (0.00 in.)
07:51 5.1°C (41.2 °F) 0.0km/h (0.0 mph) SSW 33% 983.6hPa (29.05 inHg) 0.0mm (0.00 in.)
06:51 5.9°C (42.6 °F) 0.0km/h (0.0 mph) N 33% 983.0hPa (29.03 inHg) 0.0mm (0.00 in.)
05:51 6.4°C (43.5 °F) 0.0km/h (0.0 mph) N 33% 983.4hPa (29.04 inHg) 0.0mm (0.00 in.)
04:51 6.2°C (43.2 °F) 0.0km/h (0.0 mph) SSE 33% 983.4hPa (29.04 inHg) 0.0mm (0.00 in.)
03:51 6.2°C (43.2 °F) 0.0km/h (0.0 mph) SSW 33% 983.4hPa (29.04 inHg) 0.0mm (0.00 in.)
02:51 5.8°C (42.4 °F) 0.0km/h (0.0 mph) S 32% 984.1hPa (29.06 inHg) 0.0mm (0.00 in.)
01:51 5.9°C (42.6 °F) 0.0km/h (0.0 mph) S 32% 984.2hPa (29.06 inHg) 0.0mm (0.00 in.)
00:51 6.4°C (43.5 °F) 0.0km/h (0.0 mph) SSW 32% 984.0hPa (29.06 inHg) 0.0mm (0.00 in.)
23:51 6.4°C (43.5 °F) 0.0km/h (0.0 mph) SSW 31% 984.0hPa (29.06 inHg) 0.0mm (0.00 in.)
22:51 6.8°C (44.2 °F) 0.0km/h (0.0 mph) NNE 31% 984.0hPa (29.06 inHg) 0.0mm (0.00 in.)
21:51 7.6°C (45.7 °F) 0.0km/h (0.0 mph) NNE 30% 984.0hPa (29.06 inHg) 0.0mm (0.00 in.)
20:51 8.8°C (47.8 °F) 0.0km/h (0.0 mph) NNE 28% 984.8hPa (29.08 inHg) 0.0mm (0.00 in.)
19:51 10.9°C (51.6 °F) 0.0km/h (0.0 mph) NNE 25% 984.4hPa (29.07 inHg) 0.0mm (0.00 in.)
18:51 13.3°C (55.9 °F) 0.0km/h (0.0 mph) SSW 21% 984.4hPa (29.07 inHg) 0.0mm (0.00 in.)
17:51 16.9°C (62.4 °F) 0.0km/h (0.0 mph) SSW 14% 984.0hPa (29.06 inHg) 0.0mm (0.00 in.)
16:51 20.5°C (68.9 °F) 0.0km/h (0.0 mph) S 5% 983.4hPa (29.04 inHg) 0.0mm (0.00 in.)

Barometer last 24 hours

Rain last 24 hours

Avg Windspeed last 24 hours

Š 2008-2017, Ing.Milan Kolář, Meteostanice WS 2350, La Crosse Technology